sensor_id;sensor_type;location;lat;lon;timestamp;P1;durP1;ratioP1;P2;durP2;ratioP2
40555;SDS011;26250;45.422;11.100;2022-07-23T00:00:19;4.95;;;3.70;;
40555;SDS011;26250;45.422;11.100;2022-07-23T00:02:46;13.05;;;4.63;;
40555;SDS011;26250;45.422;11.100;2022-07-23T00:05:13;24.15;;;6.53;;
40555;SDS011;26250;45.422;11.100;2022-07-23T00:07:41;18.35;;;5.68;;
40555;SDS011;26250;45.422;11.100;2022-07-23T00:10:08;9.98;;;5.25;;
40555;SDS011;26250;45.422;11.100;2022-07-23T00:12:35;8.23;;;4.70;;
40555;SDS011;26250;45.422;11.100;2022-07-23T00:15:17;8.65;;;4.53;;
40555;SDS011;26250;45.422;11.100;2022-07-23T00:17:44;10.00;;;4.13;;
40555;SDS011;26250;45.422;11.100;2022-07-23T00:20:11;6.03;;;4.80;;
40555;SDS011;26250;45.422;11.100;2022-07-23T00:25:19;5.13;;;4.22;;
40555;SDS011;26250;45.422;11.100;2022-07-23T00:27:54;6.45;;;4.68;;
40555;SDS011;26250;45.422;11.100;2022-07-23T00:30:22;7.93;;;4.30;;
40555;SDS011;26250;45.422;11.100;2022-07-23T00:32:50;28.40;;;5.70;;
40555;SDS011;26250;45.422;11.100;2022-07-23T00:35:27;18.60;;;7.57;;
40555;SDS011;26250;45.422;11.100;2022-07-23T00:37:56;8.70;;;4.60;;
40555;SDS011;26250;45.422;11.100;2022-07-23T00:40:24;13.57;;;5.63;;
40555;SDS011;26250;45.422;11.100;2022-07-23T00:42:52;7.88;;;5.45;;
40555;SDS011;26250;45.422;11.100;2022-07-23T00:45:19;9.60;;;4.57;;
40555;SDS011;26250;45.422;11.100;2022-07-23T00:47:46;5.53;;;4.22;;
40555;SDS011;26250;45.422;11.100;2022-07-23T00:50:13;7.47;;;4.43;;
40555;SDS011;26250;45.422;11.100;2022-07-23T00:52:40;5.10;;;4.28;;
40555;SDS011;26250;45.422;11.100;2022-07-23T00:55:09;6.60;;;4.95;;
40555;SDS011;26250;45.422;11.100;2022-07-23T00:57:36;7.22;;;4.20;;
40555;SDS011;26250;45.422;11.100;2022-07-23T01:00:05;6.32;;;4.25;;
40555;SDS011;26250;45.422;11.100;2022-07-23T01:02:35;8.27;;;4.30;;
40555;SDS011;26250;45.422;11.100;2022-07-23T01:05:02;8.73;;;4.63;;
40555;SDS011;26250;45.422;11.100;2022-07-23T01:07:29;9.95;;;5.97;;
40555;SDS011;26250;45.422;11.100;2022-07-23T01:09:56;5.70;;;5.00;;
40555;SDS011;26250;45.422;11.100;2022-07-23T01:12:23;11.95;;;7.00;;
40555;SDS011;26250;45.422;11.100;2022-07-23T01:14:56;161.77;;;18.90;;
40555;SDS011;26250;45.422;11.100;2022-07-23T01:17:27;15.65;;;6.70;;
40555;SDS011;26250;45.422;11.100;2022-07-23T01:19:54;11.05;;;5.05;;
40555;SDS011;26250;45.422;11.100;2022-07-23T01:22:21;9.48;;;4.88;;
40555;SDS011;26250;45.422;11.100;2022-07-23T01:24:49;7.70;;;5.32;;
40555;SDS011;26250;45.422;11.100;2022-07-23T01:27:21;22.35;;;7.90;;
40555;SDS011;26250;45.422;11.100;2022-07-23T01:29:51;8.40;;;5.50;;
40555;SDS011;26250;45.422;11.100;2022-07-23T01:32:21;6.35;;;5.13;;
40555;SDS011;26250;45.422;11.100;2022-07-23T01:34:48;8.85;;;4.95;;
40555;SDS011;26250;45.422;11.100;2022-07-23T01:37:15;9.65;;;5.75;;
40555;SDS011;26250;45.422;11.100;2022-07-23T01:39:44;8.77;;;6.15;;
40555;SDS011;26250;45.422;11.100;2022-07-23T01:42:12;10.27;;;6.30;;
40555;SDS011;26250;45.422;11.100;2022-07-23T01:44:40;18.08;;;5.63;;
40555;SDS011;26250;45.422;11.100;2022-07-23T01:47:11;6.88;;;5.47;;
40555;SDS011;26250;45.422;11.100;2022-07-23T01:49:39;9.25;;;6.22;;
40555;SDS011;26250;45.422;11.100;2022-07-23T01:52:24;7.03;;;5.75;;
40555;SDS011;26250;45.422;11.100;2022-07-23T01:54:51;11.50;;;6.40;;
40555;SDS011;26250;45.422;11.100;2022-07-23T01:57:18;7.22;;;5.90;;
40555;SDS011;26250;45.422;11.100;2022-07-23T01:59:45;8.95;;;5.85;;
40555;SDS011;26250;45.422;11.100;2022-07-23T02:02:12;8.50;;;5.82;;
40555;SDS011;26250;45.422;11.100;2022-07-23T02:04:39;23.13;;;6.68;;
40555;SDS011;26250;45.422;11.100;2022-07-23T02:07:06;12.18;;;6.25;;
40555;SDS011;26250;45.422;11.100;2022-07-23T02:09:33;9.07;;;5.97;;
40555;SDS011;26250;45.422;11.100;2022-07-23T02:12:01;9.32;;;6.03;;
40555;SDS011;26250;45.422;11.100;2022-07-23T02:14:29;10.85;;;6.03;;
40555;SDS011;26250;45.422;11.100;2022-07-23T02:16:57;16.95;;;6.90;;
40555;SDS011;26250;45.422;11.100;2022-07-23T02:19:24;16.55;;;6.47;;
40555;SDS011;26250;45.422;11.100;2022-07-23T02:21:51;8.70;;;5.82;;
40555;SDS011;26250;45.422;11.100;2022-07-23T02:24:18;11.63;;;6.55;;
40555;SDS011;26250;45.422;11.100;2022-07-23T02:26:45;8.00;;;6.32;;
40555;SDS011;26250;45.422;11.100;2022-07-23T02:29:12;7.90;;;5.55;;
40555;SDS011;26250;45.422;11.100;2022-07-23T02:31:39;10.98;;;6.05;;
40555;SDS011;26250;45.422;11.100;2022-07-23T02:34:07;19.20;;;6.25;;
40555;SDS011;26250;45.422;11.100;2022-07-23T02:36:34;9.82;;;5.75;;
40555;SDS011;26250;45.422;11.100;2022-07-23T02:39:02;9.80;;;5.32;;
40555;SDS011;26250;45.422;11.100;2022-07-23T02:41:32;12.10;;;6.07;;
40555;SDS011;26250;45.422;11.100;2022-07-23T02:43:59;7.53;;;6.22;;
40555;SDS011;26250;45.422;11.100;2022-07-23T02:46:26;9.50;;;6.63;;
40555;SDS011;26250;45.422;11.100;2022-07-23T02:48:56;12.38;;;6.30;;
40555;SDS011;26250;45.422;11.100;2022-07-23T02:51:23;12.18;;;6.57;;
40555;SDS011;26250;45.422;11.100;2022-07-23T02:53:55;6.32;;;5.72;;
40555;SDS011;26250;45.422;11.100;2022-07-23T02:56:22;8.98;;;5.85;;
40555;SDS011;26250;45.422;11.100;2022-07-23T02:58:49;7.63;;;5.60;;
40555;SDS011;26250;45.422;11.100;2022-07-23T03:01:17;7.05;;;5.63;;
40555;SDS011;26250;45.422;11.100;2022-07-23T03:03:46;6.88;;;5.78;;
40555;SDS011;26250;45.422;11.100;2022-07-23T03:06:13;8.30;;;5.30;;
40555;SDS011;26250;45.422;11.100;2022-07-23T03:08:40;8.20;;;6.18;;
40555;SDS011;26250;45.422;11.100;2022-07-23T03:11:07;10.32;;;6.22;;
40555;SDS011;26250;45.422;11.100;2022-07-23T03:13:38;6.45;;;5.65;;
40555;SDS011;26250;45.422;11.100;2022-07-23T03:16:06;30.77;;;6.78;;
40555;SDS011;26250;45.422;11.100;2022-07-23T03:18:35;16.52;;;6.40;;
40555;SDS011;26250;45.422;11.100;2022-07-23T03:21:06;9.10;;;6.03;;
40555;SDS011;26250;45.422;11.100;2022-07-23T03:23:34;7.93;;;6.32;;
40555;SDS011;26250;45.422;11.100;2022-07-23T03:26:01;13.85;;;6.78;;
40555;SDS011;26250;45.422;11.100;2022-07-23T03:28:28;18.33;;;6.72;;
40555;SDS011;26250;45.422;11.100;2022-07-23T03:30:55;33.40;;;8.40;;
40555;SDS011;26250;45.422;11.100;2022-07-23T03:33:22;24.73;;;7.60;;
40555;SDS011;26250;45.422;11.100;2022-07-23T03:35:49;26.33;;;8.52;;
40555;SDS011;26250;45.422;11.100;2022-07-23T03:38:21;17.33;;;7.07;;
40555;SDS011;26250;45.422;11.100;2022-07-23T03:40:49;18.73;;;6.65;;
40555;SDS011;26250;45.422;11.100;2022-07-23T03:43:16;17.77;;;7.13;;
40555;SDS011;26250;45.422;11.100;2022-07-23T03:45:44;11.73;;;6.95;;
40555;SDS011;26250;45.422;11.100;2022-07-23T03:48:11;16.77;;;6.45;;
40555;SDS011;26250;45.422;11.100;2022-07-23T03:50:39;17.30;;;6.38;;
40555;SDS011;26250;45.422;11.100;2022-07-23T03:53:06;13.50;;;7.32;;
40555;SDS011;26250;45.422;11.100;2022-07-23T03:55:34;15.18;;;7.15;;
40555;SDS011;26250;45.422;11.100;2022-07-23T03:58:01;11.43;;;6.85;;
40555;SDS011;26250;45.422;11.100;2022-07-23T04:00:28;9.38;;;5.90;;
40555;SDS011;26250;45.422;11.100;2022-07-23T04:02:55;11.90;;;6.43;;
40555;SDS011;26250;45.422;11.100;2022-07-23T04:05:23;15.20;;;6.10;;
40555;SDS011;26250;45.422;11.100;2022-07-23T04:07:56;18.00;;;6.38;;
40555;SDS011;26250;45.422;11.100;2022-07-23T04:10:23;8.07;;;5.95;;
40555;SDS011;26250;45.422;11.100;2022-07-23T04:12:50;7.47;;;5.78;;
40555;SDS011;26250;45.422;11.100;2022-07-23T04:15:17;12.25;;;5.85;;
40555;SDS011;26250;45.422;11.100;2022-07-23T04:17:45;7.82;;;5.70;;
40555;SDS011;26250;45.422;11.100;2022-07-23T04:20:16;9.70;;;6.05;;
40555;SDS011;26250;45.422;11.100;2022-07-23T04:22:49;11.02;;;6.00;;
40555;SDS011;26250;45.422;11.100;2022-07-23T04:25:17;12.82;;;6.88;;
40555;SDS011;26250;45.422;11.100;2022-07-23T04:27:44;18.10;;;6.43;;
40555;SDS011;26250;45.422;11.100;2022-07-23T04:30:11;9.57;;;6.63;;
40555;SDS011;26250;45.422;11.100;2022-07-23T04:32:39;9.43;;;6.88;;
40555;SDS011;26250;45.422;11.100;2022-07-23T04:35:13;11.75;;;5.63;;
40555;SDS011;26250;45.422;11.100;2022-07-23T04:37:40;12.93;;;5.95;;
40555;SDS011;26250;45.422;11.100;2022-07-23T04:40:07;11.32;;;5.80;;
40555;SDS011;26250;45.422;11.100;2022-07-23T04:42:35;14.90;;;6.32;;
40555;SDS011;26250;45.422;11.100;2022-07-23T04:45:02;10.05;;;6.78;;
40555;SDS011;26250;45.422;11.100;2022-07-23T04:47:32;11.23;;;5.70;;
40555;SDS011;26250;45.422;11.100;2022-07-23T04:50:00;8.48;;;5.80;;
40555;SDS011;26250;45.422;11.100;2022-07-23T04:52:27;14.43;;;6.07;;
40555;SDS011;26250;45.422;11.100;2022-07-23T04:54:54;7.03;;;6.18;;
40555;SDS011;26250;45.422;11.100;2022-07-23T04:57:21;10.23;;;6.70;;
40555;SDS011;26250;45.422;11.100;2022-07-23T04:59:48;15.90;;;6.57;;
40555;SDS011;26250;45.422;11.100;2022-07-23T05:02:15;13.82;;;6.50;;
40555;SDS011;26250;45.422;11.100;2022-07-23T05:04:42;10.18;;;5.95;;
40555;SDS011;26250;45.422;11.100;2022-07-23T05:07:10;13.70;;;6.13;;
40555;SDS011;26250;45.422;11.100;2022-07-23T05:09:37;12.15;;;6.28;;
40555;SDS011;26250;45.422;11.100;2022-07-23T05:12:04;13.88;;;6.63;;
40555;SDS011;26250;45.422;11.100;2022-07-23T05:14:33;7.72;;;6.22;;
40555;SDS011;26250;45.422;11.100;2022-07-23T05:17:00;15.38;;;6.03;;
40555;SDS011;26250;45.422;11.100;2022-07-23T05:19:27;11.63;;;6.22;;
40555;SDS011;26250;45.422;11.100;2022-07-23T05:21:55;8.02;;;5.75;;
40555;SDS011;26250;45.422;11.100;2022-07-23T05:24:22;33.47;;;6.25;;
40555;SDS011;26250;45.422;11.100;2022-07-23T05:26:50;16.42;;;6.50;;
40555;SDS011;26250;45.422;11.100;2022-07-23T05:29:17;9.15;;;5.30;;
40555;SDS011;26250;45.422;11.100;2022-07-23T05:31:45;9.00;;;5.30;;
40555;SDS011;26250;45.422;11.100;2022-07-23T05:34:12;10.57;;;6.00;;
40555;SDS011;26250;45.422;11.100;2022-07-23T05:36:43;14.18;;;6.03;;
40555;SDS011;26250;45.422;11.100;2022-07-23T05:39:11;11.38;;;5.90;;
40555;SDS011;26250;45.422;11.100;2022-07-23T05:41:38;7.28;;;5.55;;
40555;SDS011;26250;45.422;11.100;2022-07-23T05:44:05;13.82;;;6.05;;
40555;SDS011;26250;45.422;11.100;2022-07-23T05:46:36;16.48;;;6.20;;
40555;SDS011;26250;45.422;11.100;2022-07-23T05:49:07;9.48;;;6.05;;
40555;SDS011;26250;45.422;11.100;2022-07-23T05:51:54;8.98;;;5.63;;
40555;SDS011;26250;45.422;11.100;2022-07-23T05:54:33;14.40;;;5.97;;
40555;SDS011;26250;45.422;11.100;2022-07-23T05:57:01;8.55;;;5.75;;
40555;SDS011;26250;45.422;11.100;2022-07-23T05:59:29;8.77;;;5.35;;
40555;SDS011;26250;45.422;11.100;2022-07-23T06:01:56;12.48;;;6.82;;
40555;SDS011;26250;45.422;11.100;2022-07-23T06:04:23;9.75;;;5.88;;
40555;SDS011;26250;45.422;11.100;2022-07-23T06:07:08;12.68;;;7.65;;
40555;SDS011;26250;45.422;11.100;2022-07-23T06:09:36;15.43;;;6.70;;
40555;SDS011;26250;45.422;11.100;2022-07-23T06:12:03;16.55;;;7.90;;
40555;SDS011;26250;45.422;11.100;2022-07-23T06:14:30;10.02;;;5.88;;
40555;SDS011;26250;45.422;11.100;2022-07-23T06:16:59;28.08;;;7.30;;
40555;SDS011;26250;45.422;11.100;2022-07-23T06:19:26;9.30;;;6.22;;
40555;SDS011;26250;45.422;11.100;2022-07-23T06:21:53;7.28;;;6.13;;
40555;SDS011;26250;45.422;11.100;2022-07-23T06:24:20;8.10;;;6.03;;
40555;SDS011;26250;45.422;11.100;2022-07-23T06:26:48;11.20;;;6.18;;
40555;SDS011;26250;45.422;11.100;2022-07-23T06:29:15;11.20;;;6.68;;
40555;SDS011;26250;45.422;11.100;2022-07-23T06:31:42;14.00;;;8.05;;
40555;SDS011;26250;45.422;11.100;2022-07-23T06:34:09;13.73;;;7.80;;
40555;SDS011;26250;45.422;11.100;2022-07-23T06:36:36;12.15;;;7.85;;
40555;SDS011;26250;45.422;11.100;2022-07-23T06:39:04;20.00;;;8.68;;
40555;SDS011;26250;45.422;11.100;2022-07-23T06:41:34;9.35;;;7.20;;
40555;SDS011;26250;45.422;11.100;2022-07-23T06:44:01;14.77;;;7.25;;
40555;SDS011;26250;45.422;11.100;2022-07-23T06:46:30;9.07;;;7.97;;
40555;SDS011;26250;45.422;11.100;2022-07-23T06:48:59;12.82;;;6.63;;
40555;SDS011;26250;45.422;11.100;2022-07-23T06:51:28;17.33;;;7.75;;
40555;SDS011;26250;45.422;11.100;2022-07-23T06:53:55;17.33;;;8.30;;
40555;SDS011;26250;45.422;11.100;2022-07-23T06:56:22;19.25;;;9.52;;
40555;SDS011;26250;45.422;11.100;2022-07-23T06:58:49;16.77;;;9.18;;
40555;SDS011;26250;45.422;11.100;2022-07-23T07:01:15;13.95;;;8.90;;
40555;SDS011;26250;45.422;11.100;2022-07-23T07:03:43;9.45;;;8.13;;
40555;SDS011;26250;45.422;11.100;2022-07-23T07:06:10;18.20;;;9.05;;
40555;SDS011;26250;45.422;11.100;2022-07-23T07:08:37;18.33;;;8.30;;
40555;SDS011;26250;45.422;11.100;2022-07-23T07:11:04;18.75;;;8.43;;
40555;SDS011;26250;45.422;11.100;2022-07-23T07:13:30;12.18;;;7.70;;
40555;SDS011;26250;45.422;11.100;2022-07-23T07:15:57;25.40;;;8.77;;
40555;SDS011;26250;45.422;11.100;2022-07-23T07:18:24;18.20;;;9.13;;
40555;SDS011;26250;45.422;11.100;2022-07-23T07:20:51;20.80;;;9.82;;
40555;SDS011;26250;45.422;11.100;2022-07-23T07:23:22;14.05;;;9.30;;
40555;SDS011;26250;45.422;11.100;2022-07-23T07:25:49;13.02;;;9.38;;
40555;SDS011;26250;45.422;11.100;2022-07-23T07:28:16;26.10;;;10.55;;
40555;SDS011;26250;45.422;11.100;2022-07-23T07:30:43;14.93;;;10.70;;
40555;SDS011;26250;45.422;11.100;2022-07-23T07:33:10;18.15;;;10.77;;
40555;SDS011;26250;45.422;11.100;2022-07-23T07:35:37;15.45;;;9.90;;
40555;SDS011;26250;45.422;11.100;2022-07-23T07:38:04;26.70;;;11.45;;
40555;SDS011;26250;45.422;11.100;2022-07-23T07:40:31;24.30;;;11.45;;
40555;SDS011;26250;45.422;11.100;2022-07-23T07:42:59;12.93;;;10.93;;
40555;SDS011;26250;45.422;11.100;2022-07-23T07:45:28;25.20;;;11.63;;
40555;SDS011;26250;45.422;11.100;2022-07-23T07:47:55;15.30;;;11.18;;
40555;SDS011;26250;45.422;11.100;2022-07-23T07:50:22;28.48;;;11.45;;
40555;SDS011;26250;45.422;11.100;2022-07-23T07:52:49;33.20;;;12.60;;
40555;SDS011;26250;45.422;11.100;2022-07-23T07:55:17;18.75;;;11.65;;
40555;SDS011;26250;45.422;11.100;2022-07-23T07:57:44;20.98;;;13.05;;
40555;SDS011;26250;45.422;11.100;2022-07-23T08:00:15;18.92;;;10.75;;
40555;SDS011;26250;45.422;11.100;2022-07-23T08:02:46;23.90;;;12.60;;
40555;SDS011;26250;45.422;11.100;2022-07-23T08:05:18;22.55;;;11.82;;
40555;SDS011;26250;45.422;11.100;2022-07-23T08:07:56;13.50;;;11.15;;
40555;SDS011;26250;45.422;11.100;2022-07-23T08:10:25;14.55;;;11.07;;
40555;SDS011;26250;45.422;11.100;2022-07-23T08:12:54;19.30;;;12.27;;
40555;SDS011;26250;45.422;11.100;2022-07-23T08:15:26;27.27;;;11.47;;
40555;SDS011;26250;45.422;11.100;2022-07-23T08:17:54;14.40;;;12.90;;
40555;SDS011;26250;45.422;11.100;2022-07-23T08:20:22;14.82;;;11.85;;
40555;SDS011;26250;45.422;11.100;2022-07-23T08:22:55;17.65;;;11.98;;
40555;SDS011;26250;45.422;11.100;2022-07-23T08:25:30;17.08;;;12.63;;
40555;SDS011;26250;45.422;11.100;2022-07-23T08:28:00;17.75;;;12.25;;
40555;SDS011;26250;45.422;11.100;2022-07-23T08:30:27;17.85;;;12.75;;
40555;SDS011;26250;45.422;11.100;2022-07-23T08:32:56;21.30;;;13.68;;
40555;SDS011;26250;45.422;11.100;2022-07-23T08:35:24;17.20;;;13.05;;
40555;SDS011;26250;45.422;11.100;2022-07-23T08:37:53;20.05;;;12.35;;
40555;SDS011;26250;45.422;11.100;2022-07-23T08:40:20;19.25;;;12.75;;
40555;SDS011;26250;45.422;11.100;2022-07-23T08:42:48;22.52;;;13.50;;
40555;SDS011;26250;45.422;11.100;2022-07-23T08:45:18;25.08;;;13.32;;
40555;SDS011;26250;45.422;11.100;2022-07-23T08:47:48;24.05;;;14.88;;
40555;SDS011;26250;45.422;11.100;2022-07-23T08:50:19;25.45;;;14.02;;
40555;SDS011;26250;45.422;11.100;2022-07-23T08:52:50;25.08;;;13.40;;
40555;SDS011;26250;45.422;11.100;2022-07-23T08:55:18;22.33;;;14.40;;
40555;SDS011;26250;45.422;11.100;2022-07-23T08:57:51;18.25;;;15.65;;
40555;SDS011;26250;45.422;11.100;2022-07-23T09:00:20;23.52;;;15.52;;
40555;SDS011;26250;45.422;11.100;2022-07-23T09:02:48;21.52;;;16.60;;
40555;SDS011;26250;45.422;11.100;2022-07-23T09:05:17;20.35;;;15.38;;
40555;SDS011;26250;45.422;11.100;2022-07-23T09:08:04;17.85;;;15.88;;
40555;SDS011;26250;45.422;11.100;2022-07-23T09:13:28;27.85;;;16.92;;
40555;SDS011;26250;45.422;11.100;2022-07-23T09:15:59;28.55;;;16.83;;
40555;SDS011;26250;45.422;11.100;2022-07-23T09:18:42;22.17;;;18.70;;
40555;SDS011;26250;45.422;11.100;2022-07-23T09:21:18;26.17;;;19.65;;
40555;SDS011;26250;45.422;11.100;2022-07-23T09:23:47;31.25;;;18.67;;
40555;SDS011;26250;45.422;11.100;2022-07-23T09:28:50;21.20;;;15.23;;
40555;SDS011;26250;45.422;11.100;2022-07-23T09:31:19;22.10;;;15.82;;
40555;SDS011;26250;45.422;11.100;2022-07-23T09:33:47;23.83;;;16.52;;
40555;SDS011;26250;45.422;11.100;2022-07-23T09:36:14;22.80;;;17.45;;
40555;SDS011;26250;45.422;11.100;2022-07-23T09:38:48;23.55;;;15.70;;
40555;SDS011;26250;45.422;11.100;2022-07-23T09:41:17;16.33;;;13.90;;
40555;SDS011;26250;45.422;11.100;2022-07-23T09:43:44;15.20;;;12.75;;
40555;SDS011;26250;45.422;11.100;2022-07-23T09:48:52;18.30;;;14.18;;
40555;SDS011;26250;45.422;11.100;2022-07-23T09:51:20;22.02;;;13.48;;
40555;SDS011;26250;45.422;11.100;2022-07-23T09:53:53;14.65;;;12.35;;
40555;SDS011;26250;45.422;11.100;2022-07-23T09:56:20;16.73;;;13.18;;
40555;SDS011;26250;45.422;11.100;2022-07-23T09:58:53;16.80;;;11.63;;
40555;SDS011;26250;45.422;11.100;2022-07-23T10:01:31;16.30;;;12.65;;
40555;SDS011;26250;45.422;11.100;2022-07-23T10:03:59;17.08;;;11.68;;
40555;SDS011;26250;45.422;11.100;2022-07-23T10:06:50;12.50;;;10.38;;
40555;SDS011;26250;45.422;11.100;2022-07-23T10:09:40;13.90;;;9.55;;
40555;SDS011;26250;45.422;11.100;2022-07-23T10:12:28;14.02;;;9.73;;
40555;SDS011;26250;45.422;11.100;2022-07-23T10:15:01;15.23;;;7.82;;
40555;SDS011;26250;45.422;11.100;2022-07-23T10:17:30;14.70;;;9.43;;
40555;SDS011;26250;45.422;11.100;2022-07-23T10:19:57;12.60;;;8.73;;
40555;SDS011;26250;45.422;11.100;2022-07-23T10:22:25;7.53;;;6.75;;
40555;SDS011;26250;45.422;11.100;2022-07-23T10:30:25;15.63;;;7.80;;
40555;SDS011;26250;45.422;11.100;2022-07-23T10:33:09;12.02;;;7.30;;
40555;SDS011;26250;45.422;11.100;2022-07-23T10:35:48;9.07;;;6.63;;
40555;SDS011;26250;45.422;11.100;2022-07-23T10:41:37;23.48;;;6.85;;
40555;SDS011;26250;45.422;11.100;2022-07-23T10:44:08;11.43;;;7.00;;
40555;SDS011;26250;45.422;11.100;2022-07-23T10:49:49;18.42;;;6.53;;
40555;SDS011;26250;45.422;11.100;2022-07-23T10:52:17;6.63;;;4.90;;
40555;SDS011;26250;45.422;11.100;2022-07-23T10:57:18;7.32;;;4.70;;
40555;SDS011;26250;45.422;11.100;2022-07-23T11:02:28;5.10;;;4.57;;
40555;SDS011;26250;45.422;11.100;2022-07-23T11:05:00;10.75;;;5.13;;
40555;SDS011;26250;45.422;11.100;2022-07-23T11:07:30;4.68;;;4.28;;
40555;SDS011;26250;45.422;11.100;2022-07-23T11:09:58;6.50;;;4.65;;
40555;SDS011;26250;45.422;11.100;2022-07-23T11:17:28;6.90;;;5.05;;
40555;SDS011;26250;45.422;11.100;2022-07-23T11:27:54;15.15;;;6.07;;
40555;SDS011;26250;45.422;11.100;2022-07-23T11:30:38;9.43;;;4.47;;
40555;SDS011;26250;45.422;11.100;2022-07-23T11:35:35;5.95;;;4.28;;
40555;SDS011;26250;45.422;11.100;2022-07-23T11:38:06;7.78;;;5.25;;
40555;SDS011;26250;45.422;11.100;2022-07-23T11:40:34;8.65;;;5.43;;
40555;SDS011;26250;45.422;11.100;2022-07-23T11:43:03;5.97;;;5.28;;
40555;SDS011;26250;45.422;11.100;2022-07-23T11:45:35;9.18;;;6.63;;
40555;SDS011;26250;45.422;11.100;2022-07-23T11:48:07;12.45;;;7.10;;
40555;SDS011;26250;45.422;11.100;2022-07-23T11:50:36;16.33;;;6.95;;
40555;SDS011;26250;45.422;11.100;2022-07-23T11:53:03;10.02;;;6.97;;
40555;SDS011;26250;45.422;11.100;2022-07-23T11:55:30;12.13;;;7.32;;
40555;SDS011;26250;45.422;11.100;2022-07-23T11:57:57;9.30;;;7.13;;
40555;SDS011;26250;45.422;11.100;2022-07-23T12:00:27;9.55;;;6.68;;
40555;SDS011;26250;45.422;11.100;2022-07-23T12:02:58;10.90;;;7.57;;
40555;SDS011;26250;45.422;11.100;2022-07-23T12:05:31;9.20;;;7.93;;
40555;SDS011;26250;45.422;11.100;2022-07-23T12:08:01;9.27;;;7.55;;
40555;SDS011;26250;45.422;11.100;2022-07-23T12:10:35;14.82;;;8.05;;
40555;SDS011;26250;45.422;11.100;2022-07-23T12:13:05;8.20;;;7.00;;
40555;SDS011;26250;45.422;11.100;2022-07-23T12:15:38;8.40;;;7.15;;
40555;SDS011;26250;45.422;11.100;2022-07-23T12:18:09;16.08;;;8.07;;
40555;SDS011;26250;45.422;11.100;2022-07-23T12:20:46;11.13;;;7.28;;
40555;SDS011;26250;45.422;11.100;2022-07-23T12:23:16;11.07;;;6.90;;
40555;SDS011;26250;45.422;11.100;2022-07-23T12:25:47;12.70;;;6.80;;
40555;SDS011;26250;45.422;11.100;2022-07-23T12:33:13;8.82;;;6.78;;
40555;SDS011;26250;45.422;11.100;2022-07-23T12:35:43;14.57;;;6.30;;
40555;SDS011;26250;45.422;11.100;2022-07-23T12:38:16;14.40;;;7.28;;
40555;SDS011;26250;45.422;11.100;2022-07-23T12:45:55;14.55;;;7.93;;
40555;SDS011;26250;45.422;11.100;2022-07-23T12:48:29;12.63;;;7.47;;
40555;SDS011;26250;45.422;11.100;2022-07-23T12:51:00;15.95;;;6.80;;
40555;SDS011;26250;45.422;11.100;2022-07-23T12:53:31;9.20;;;7.38;;
40555;SDS011;26250;45.422;11.100;2022-07-23T12:56:10;11.95;;;7.30;;
40555;SDS011;26250;45.422;11.100;2022-07-23T12:58:42;10.80;;;7.72;;
40555;SDS011;26250;45.422;11.100;2022-07-23T13:04:11;7.68;;;5.80;;
40555;SDS011;26250;45.422;11.100;2022-07-23T13:06:51;9.90;;;6.65;;
40555;SDS011;26250;45.422;11.100;2022-07-23T13:09:23;8.77;;;6.95;;
40555;SDS011;26250;45.422;11.100;2022-07-23T13:11:58;11.35;;;7.65;;
40555;SDS011;26250;45.422;11.100;2022-07-23T13:14:26;10.20;;;8.00;;
40555;SDS011;26250;45.422;11.100;2022-07-23T13:16:54;17.00;;;8.82;;
40555;SDS011;26250;45.422;11.100;2022-07-23T13:19:25;17.98;;;7.30;;
40555;SDS011;26250;45.422;11.100;2022-07-23T13:21:53;10.93;;;7.22;;
40555;SDS011;26250;45.422;11.100;2022-07-23T13:24:21;11.43;;;7.35;;
40555;SDS011;26250;45.422;11.100;2022-07-23T13:26:48;10.77;;;6.88;;
40555;SDS011;26250;45.422;11.100;2022-07-23T13:29:17;12.25;;;6.90;;
40555;SDS011;26250;45.422;11.100;2022-07-23T13:32:04;9.70;;;6.75;;
40555;SDS011;26250;45.422;11.100;2022-07-23T13:34:39;11.05;;;6.78;;
40555;SDS011;26250;45.422;11.100;2022-07-23T13:37:07;10.65;;;6.93;;
40555;SDS011;26250;45.422;11.100;2022-07-23T13:39:34;14.32;;;7.15;;
40555;SDS011;26250;45.422;11.100;2022-07-23T13:42:04;10.63;;;6.75;;
40555;SDS011;26250;45.422;11.100;2022-07-23T13:44:33;8.95;;;7.10;;
40555;SDS011;26250;45.422;11.100;2022-07-23T13:47:01;7.75;;;6.40;;
40555;SDS011;26250;45.422;11.100;2022-07-23T13:49:30;8.77;;;6.43;;
40555;SDS011;26250;45.422;11.100;2022-07-23T13:51:56;14.82;;;6.20;;
40555;SDS011;26250;45.422;11.100;2022-07-23T13:54:24;15.95;;;6.88;;
40555;SDS011;26250;45.422;11.100;2022-07-23T13:56:54;11.38;;;6.60;;
40555;SDS011;26250;45.422;11.100;2022-07-23T13:59:22;8.18;;;6.57;;
40555;SDS011;26250;45.422;11.100;2022-07-23T14:01:52;10.68;;;6.60;;
40555;SDS011;26250;45.422;11.100;2022-07-23T14:04:39;15.98;;;6.93;;
40555;SDS011;26250;45.422;11.100;2022-07-23T14:07:07;8.65;;;6.00;;
40555;SDS011;26250;45.422;11.100;2022-07-23T14:09:35;9.45;;;7.60;;
40555;SDS011;26250;45.422;11.100;2022-07-23T14:12:02;8.38;;;6.10;;
40555;SDS011;26250;45.422;11.100;2022-07-23T14:14:30;10.57;;;5.95;;
40555;SDS011;26250;45.422;11.100;2022-07-23T14:16:57;11.25;;;6.72;;
40555;SDS011;26250;45.422;11.100;2022-07-23T14:19:26;7.93;;;6.38;;
40555;SDS011;26250;45.422;11.100;2022-07-23T14:21:56;10.98;;;7.13;;
40555;SDS011;26250;45.422;11.100;2022-07-23T14:24:23;10.00;;;6.80;;
40555;SDS011;26250;45.422;11.100;2022-07-23T14:26:56;16.63;;;6.75;;
40555;SDS011;26250;45.422;11.100;2022-07-23T14:29:23;6.63;;;6.00;;
40555;SDS011;26250;45.422;11.100;2022-07-23T14:31:50;16.70;;;7.05;;
40555;SDS011;26250;45.422;11.100;2022-07-23T14:34:19;19.00;;;7.15;;
40555;SDS011;26250;45.422;11.100;2022-07-23T14:36:53;9.48;;;6.55;;
40555;SDS011;26250;45.422;11.100;2022-07-23T14:39:20;11.82;;;5.47;;
40555;SDS011;26250;45.422;11.100;2022-07-23T14:41:47;14.18;;;6.68;;
40555;SDS011;26250;45.422;11.100;2022-07-23T14:44:14;11.32;;;6.53;;
40555;SDS011;26250;45.422;11.100;2022-07-23T14:46:42;10.77;;;6.28;;
40555;SDS011;26250;45.422;11.100;2022-07-23T14:49:09;9.30;;;6.10;;
40555;SDS011;26250;45.422;11.100;2022-07-23T14:51:36;11.20;;;5.95;;
40555;SDS011;26250;45.422;11.100;2022-07-23T14:54:04;9.02;;;7.05;;
40555;SDS011;26250;45.422;11.100;2022-07-23T14:56:32;8.63;;;6.10;;
40555;SDS011;26250;45.422;11.100;2022-07-23T14:59:00;10.30;;;7.03;;
40555;SDS011;26250;45.422;11.100;2022-07-23T15:01:30;11.50;;;8.07;;
40555;SDS011;26250;45.422;11.100;2022-07-23T15:03:57;9.35;;;6.10;;
40555;SDS011;26250;45.422;11.100;2022-07-23T15:06:45;10.98;;;6.97;;
40555;SDS011;26250;45.422;11.100;2022-07-23T15:09:12;9.73;;;6.57;;
40555;SDS011;26250;45.422;11.100;2022-07-23T15:11:40;11.63;;;6.90;;
40555;SDS011;26250;45.422;11.100;2022-07-23T15:14:09;9.93;;;6.28;;
40555;SDS011;26250;45.422;11.100;2022-07-23T15:16:35;9.93;;;6.65;;
40555;SDS011;26250;45.422;11.100;2022-07-23T15:19:03;9.23;;;6.43;;
40555;SDS011;26250;45.422;11.100;2022-07-23T15:21:32;14.07;;;7.95;;
40555;SDS011;26250;45.422;11.100;2022-07-23T15:23:59;11.40;;;7.80;;
40555;SDS011;26250;45.422;11.100;2022-07-23T15:26:27;9.95;;;7.28;;
40555;SDS011;26250;45.422;11.100;2022-07-23T15:28:55;11.15;;;7.10;;
40555;SDS011;26250;45.422;11.100;2022-07-23T15:31:25;11.27;;;7.20;;